Aérodrome :
LOGIN :

S'inscrire | Disclaimer

   EN    FR    IT 

 










Légende :    VFR   VFR Marginal   IFR   IFR Intensif   IFR Très Intensif
Visi : 
Plafond : 
>= 8 km
>= 3000ft
5 à 8 km
1000 à 3000 ft
1500m à 5 km
500 à 1000 ft
800 à 1500m
200 à 500 ft
< 800m
< 200 ft
Symboles :   Orages  Brouillard  Fortes neiges  Fortes précipitations  Vent > 20 kt
SIGMETs :   Divers  Orages  Givrage  Turbulence  Onde Orograph.  Cendres Volcan.






- Altitude de l'aérodrome : 870 ft
- Code IATA : ETZ


LFJL - Metz Nancy Lorraine

DERNIER METAR :
  • 140030Z AUTO 14010KT CAVOK 04/03 Q1001 NOSIG

METARs EXPIRÉS :
  • 140000Z AUTO 16010KT 9999 FEW043 04/03 Q1001 NOSIG
  • 132330Z AUTO 16012KT CAVOK 04/03 Q1002 NOSIG
  • 132300Z AUTO 16012KT 9999 BKN015 OVC170 05/04 Q1002 NOSIG
  • 132230Z AUTO 17011KT 9999 BKN017 BKN023 OVC150 05/04 Q1002 NOSIG
  • 132200Z AUTO 16010KT CAVOK 04/04 Q1003 TEMPO 3000 -RA OVC005

TAF TAF LFJL
Valide du 14 à 00h jusqu'au 15 à 00h UTC


132300Z 1400/1424 12012KT 9999 SCT015
PROB40
TEMPO 1409/1412 4000 -RA BKN010
TEMPO 1414/1418 RA BKN015



MET'MAP, la Météo Aéronautique d'un coup d'oeil ! - Copyright ORBIFLY Décembre 2007 - Disclaimer

ORBIFLY MET'MAP TEAM :

Programmation & Développement : Alexandra Zaïnal
Conception & Développement : Baudouin d'Aumeries
Co-Programmation & Développement : Marc-Olivier Méhu
Soutien technique & logistique : Manuel Goepfert

Contact : metmap@orbifly.com




SOURCES & CREDITS :

   NOAA